Pagina principale
METAR-TAF:

METAR-TAF

Aeroporti :

Berna, Svizzera

Aeroporto di Berna

latitudine: 46-55N, longitudine: 007-30E, altezza: 505 m

Osservazione

Il bollettino è stato emesso 12 minuti fa, alle 10:20 UTC
Vento 4 kt da nord/nord-ovest, variando fra ovest e nord/nord-est
Temperature 14°C
Umidità 63%
Pressione 1021 hPa
Visibilità 10 km o più
nessuna nube inferiore a 1500 m e nessun cumulonembo

METAR: LSZB 211020Z 33004KT 260V020 CAVOK 14/07 Q1021 NOSIG

Ora: 12:32 (10:32 UTC)

Previsione

Il bollettino è stato emesso 2 ore e 7 minuti fa, alle 08:25 UTC
Previsione valida dal 21 alle 09 UTC al 21 alle 18 UTC
Vento 3 kt da direzioni variabili
Visibilità 10 km o più
nessuna nube inferiore a 1500 m e nessun cumulonembo

TAF: LSZB 210825Z 2109/2118 VRB03KT CAVOK

Osservazioni e previsioni meteorologiche di più di 4000 aeroporti (messaggi METAR e TAF).

Le stazioni disponibili sono rappresentate dai dischi gialli e rossi sulla carta.

Puntare il mouse per vedere il nome della stazione.

Clicca sopra per visualizzare le osservazioni e previsioni meteorologiche.

Per cambiare la mappa : fare clic sui pulsanti verdi con una croce nera per ingrandire, il pulsante verde con un trattino per diminuire, o sulla freccia verde per le mappe adiacenti.


METAR-TAF: